sensor_id;sensor_type;location;lat;lon;timestamp;P1;durP1;ratioP1;P2;durP2;ratioP2
7211;SDS011;3647;48.792;9.802;2023-03-26T08:22:15;2.87;;;2.50;;
7211;SDS011;3647;48.792;9.802;2023-03-26T08:24:54;7.27;;;2.83;;
7211;SDS011;3647;48.792;9.802;2023-03-26T08:27:30;6.77;;;2.93;;
7211;SDS011;3647;48.792;9.802;2023-03-26T08:30:05;4.17;;;2.40;;
7211;SDS011;3647;48.792;9.802;2023-03-26T08:32:36;6.97;;;2.60;;
7211;SDS011;3647;48.792;9.802;2023-03-26T08:35:03;4.97;;;2.50;;
7211;SDS011;3647;48.792;9.802;2023-03-26T08:37:32;6.23;;;2.27;;
7211;SDS011;3647;48.792;9.802;2023-03-26T08:39:59;4.57;;;2.47;;
7211;SDS011;3647;48.792;9.802;2023-03-26T08:45:38;6.10;;;2.70;;
7211;SDS011;3647;48.792;9.802;2023-03-26T08:51:28;8.30;;;3.47;;
7211;SDS011;3647;48.792;9.802;2023-03-26T08:54:26;7.70;;;3.80;;
7211;SDS011;3647;48.792;9.802;2023-03-26T09:07:00;4.07;;;3.20;;
7211;SDS011;3647;48.792;9.802;2023-03-26T09:10:22;12.23;;;3.37;;
7211;SDS011;3647;48.792;9.802;2023-03-26T09:16:22;5.93;;;2.87;;
7211;SDS011;3647;48.792;9.802;2023-03-26T09:19:08;7.27;;;3.07;;
7211;SDS011;3647;48.792;9.802;2023-03-26T09:21:57;7.30;;;3.30;;
7211;SDS011;3647;48.792;9.802;2023-03-26T09:24:58;7.27;;;4.37;;
7211;SDS011;3647;48.792;9.802;2023-03-26T09:27:52;5.07;;;2.73;;
7211;SDS011;3647;48.792;9.802;2023-03-26T09:30:55;6.53;;;2.87;;
7211;SDS011;3647;48.792;9.802;2023-03-26T09:33:53;5.13;;;2.93;;
7211;SDS011;3647;48.792;9.802;2023-03-26T09:39:16;5.43;;;2.60;;
7211;SDS011;3647;48.792;9.802;2023-03-26T09:41:51;4.57;;;2.80;;
7211;SDS011;3647;48.792;9.802;2023-03-26T09:44:35;2.50;;;2.30;;
7211;SDS011;3647;48.792;9.802;2023-03-26T09:47:33;2.87;;;2.60;;
7211;SDS011;3647;48.792;9.802;2023-03-26T09:50:33;5.43;;;2.83;;
7211;SDS011;3647;48.792;9.802;2023-03-26T09:53:14;5.27;;;3.07;;
7211;SDS011;3647;48.792;9.802;2023-03-26T09:55:56;4.90;;;2.37;;
7211;SDS011;3647;48.792;9.802;2023-03-26T09:58:39;4.10;;;3.07;;
7211;SDS011;3647;48.792;9.802;2023-03-26T10:01:16;4.40;;;2.57;;
7211;SDS011;3647;48.792;9.802;2023-03-26T10:03:57;4.23;;;2.13;;
7211;SDS011;3647;48.792;9.802;2023-03-26T10:06:46;4.40;;;2.20;;
7211;SDS011;3647;48.792;9.802;2023-03-26T10:09:33;3.37;;;2.57;;
7211;SDS011;3647;48.792;9.802;2023-03-26T10:12:21;5.20;;;2.00;;
7211;SDS011;3647;48.792;9.802;2023-03-26T10:14:59;3.20;;;2.07;;
7211;SDS011;3647;48.792;9.802;2023-03-26T10:17:51;4.07;;;2.20;;
7211;SDS011;3647;48.792;9.802;2023-03-26T10:20:28;2.70;;;2.07;;
7211;SDS011;3647;48.792;9.802;2023-03-26T10:23:07;2.90;;;1.90;;
7211;SDS011;3647;48.792;9.802;2023-03-26T10:25:57;8.53;;;1.93;;
7211;SDS011;3647;48.792;9.802;2023-03-26T10:31:38;2.90;;;1.57;;
7211;SDS011;3647;48.792;9.802;2023-03-26T10:34:12;4.13;;;2.10;;
7211;SDS011;3647;48.792;9.802;2023-03-26T10:36:47;3.13;;;1.70;;
7211;SDS011;3647;48.792;9.802;2023-03-26T10:39:28;4.53;;;3.60;;
7211;SDS011;3647;48.792;9.802;2023-03-26T10:42:18;3.60;;;1.50;;
7211;SDS011;3647;48.792;9.802;2023-03-26T10:45:12;3.40;;;1.60;;
7211;SDS011;3647;48.792;9.802;2023-03-26T10:48:01;3.23;;;1.60;;
7211;SDS011;3647;48.792;9.802;2023-03-26T10:50:54;4.00;;;1.30;;
7211;SDS011;3647;48.792;9.802;2023-03-26T10:53:33;2.47;;;1.30;;
7211;SDS011;3647;48.792;9.802;2023-03-26T10:56:06;1.47;;;1.37;;
7211;SDS011;3647;48.792;9.802;2023-03-26T10:58:38;2.27;;;1.77;;
7211;SDS011;3647;48.792;9.802;2023-03-26T11:01:09;3.50;;;1.50;;
7211;SDS011;3647;48.792;9.802;2023-03-26T11:03:47;2.27;;;1.40;;
7211;SDS011;3647;48.792;9.802;2023-03-26T11:06:28;3.13;;;1.80;;
7211;SDS011;3647;48.792;9.802;2023-03-26T11:09:00;2.97;;;1.20;;
7211;SDS011;3647;48.792;9.802;2023-03-26T11:11:36;2.27;;;2.07;;
7211;SDS011;3647;48.792;9.802;2023-03-26T11:14:11;2.43;;;2.00;;
7211;SDS011;3647;48.792;9.802;2023-03-26T11:16:49;4.80;;;1.50;;
7211;SDS011;3647;48.792;9.802;2023-03-26T11:19:25;2.67;;;1.53;;
7211;SDS011;3647;48.792;9.802;2023-03-26T11:21:59;2.27;;;1.30;;
7211;SDS011;3647;48.792;9.802;2023-03-26T11:24:40;2.47;;;1.67;;
7211;SDS011;3647;48.792;9.802;2023-03-26T11:27:25;2.23;;;1.20;;
7211;SDS011;3647;48.792;9.802;2023-03-26T11:30:09;2.40;;;1.60;;
7211;SDS011;3647;48.792;9.802;2023-03-26T11:32:43;2.27;;;1.10;;
7211;SDS011;3647;48.792;9.802;2023-03-26T11:35:14;2.53;;;1.53;;
7211;SDS011;3647;48.792;9.802;2023-03-26T11:37:47;1.50;;;1.40;;
7211;SDS011;3647;48.792;9.802;2023-03-26T11:40:19;1.90;;;1.70;;
7211;SDS011;3647;48.792;9.802;2023-03-26T11:42:49;2.23;;;1.40;;
7211;SDS011;3647;48.792;9.802;2023-03-26T11:45:22;1.37;;;1.27;;
7211;SDS011;3647;48.792;9.802;2023-03-26T11:47:54;3.47;;;2.90;;
7211;SDS011;3647;48.792;9.802;2023-03-26T11:50:25;1.50;;;1.40;;
7211;SDS011;3647;48.792;9.802;2023-03-26T11:52:56;2.50;;;1.50;;
7211;SDS011;3647;48.792;9.802;2023-03-26T11:55:27;1.97;;;1.80;;
7211;SDS011;3647;48.792;9.802;2023-03-26T11:57:56;1.60;;;1.30;;
7211;SDS011;3647;48.792;9.802;2023-03-26T12:00:24;2.40;;;1.30;;
7211;SDS011;3647;48.792;9.802;2023-03-26T12:02:54;2.30;;;1.70;;
7211;SDS011;3647;48.792;9.802;2023-03-26T12:05:23;1.52;;;1.20;;
7211;SDS011;3647;48.792;9.802;2023-03-26T12:07:52;2.78;;;1.83;;
7211;SDS011;3647;48.792;9.802;2023-03-26T12:10:23;2.70;;;1.80;;
7211;SDS011;3647;48.792;9.802;2023-03-26T12:12:53;1.40;;;1.15;;
7211;SDS011;3647;48.792;9.802;2023-03-26T12:15:23;2.00;;;1.00;;
7211;SDS011;3647;48.792;9.802;2023-03-26T12:17:51;1.23;;;1.00;;
7211;SDS011;3647;48.792;9.802;2023-03-26T12:20:31;2.65;;;1.42;;
7211;SDS011;3647;48.792;9.802;2023-03-26T12:23:02;1.30;;;1.10;;
7211;SDS011;3647;48.792;9.802;2023-03-26T12:25:32;1.17;;;1.07;;
7211;SDS011;3647;48.792;9.802;2023-03-26T12:28:01;1.43;;;1.30;;
7211;SDS011;3647;48.792;9.802;2023-03-26T12:30:29;12.13;;;2.43;;
7211;SDS011;3647;48.792;9.802;2023-03-26T12:32:59;1.37;;;1.10;;
7211;SDS011;3647;48.792;9.802;2023-03-26T12:35:29;2.23;;;1.10;;
7211;SDS011;3647;48.792;9.802;2023-03-26T12:38:13;0.93;;;0.93;;
7211;SDS011;3647;48.792;9.802;2023-03-26T12:40:44;2.23;;;1.07;;
7211;SDS011;3647;48.792;9.802;2023-03-26T12:43:21;1.83;;;1.70;;
7211;SDS011;3647;48.792;9.802;2023-03-26T12:45:53;1.13;;;1.10;;
7211;SDS011;3647;48.792;9.802;2023-03-26T12:48:23;1.43;;;1.07;;
7211;SDS011;3647;48.792;9.802;2023-03-26T14:39:41;2.10;;;1.40;;
7211;SDS011;3647;48.792;9.802;2023-03-26T14:42:31;2.07;;;1.20;;
7211;SDS011;3647;48.792;9.802;2023-03-26T14:45:08;3.03;;;1.60;;
7211;SDS011;3647;48.792;9.802;2023-03-26T14:47:59;1.97;;;1.57;;
7211;SDS011;3647;48.792;9.802;2023-03-26T14:50:44;1.87;;;1.33;;
7211;SDS011;3647;48.792;9.802;2023-03-26T14:53:27;3.43;;;1.43;;
7211;SDS011;3647;48.792;9.802;2023-03-26T14:56:20;1.90;;;1.23;;
7211;SDS011;3647;48.792;9.802;2023-03-26T14:59:27;1.90;;;1.10;;
7211;SDS011;3647;48.792;9.802;2023-03-26T15:05:39;1.60;;;1.50;;
7211;SDS011;3647;48.792;9.802;2023-03-26T15:11:30;2.97;;;1.50;;
7211;SDS011;3647;48.792;9.802;2023-03-26T15:14:21;2.10;;;1.20;;
7211;SDS011;3647;48.792;9.802;2023-03-26T15:27:00;2.27;;;1.40;;
7211;SDS011;3647;48.792;9.802;2023-03-26T15:36:49;2.70;;;1.50;;
7211;SDS011;3647;48.792;9.802;2023-03-26T15:39:48;1.40;;;1.30;;
7211;SDS011;3647;48.792;9.802;2023-03-26T15:42:40;1.33;;;1.30;;
7211;SDS011;3647;48.792;9.802;2023-03-26T15:45:15;2.27;;;1.50;;
7211;SDS011;3647;48.792;9.802;2023-03-26T15:48:04;2.87;;;1.60;;
7211;SDS011;3647;48.792;9.802;2023-03-26T15:50:56;1.90;;;1.73;;
7211;SDS011;3647;48.792;9.802;2023-03-26T15:53:33;1.50;;;1.40;;
7211;SDS011;3647;48.792;9.802;2023-03-26T15:56:14;1.57;;;1.47;;
7211;SDS011;3647;48.792;9.802;2023-03-26T15:58:50;1.50;;;1.40;;
7211;SDS011;3647;48.792;9.802;2023-03-26T16:01:26;3.60;;;1.50;;
7211;SDS011;3647;48.792;9.802;2023-03-26T16:04:06;2.00;;;1.60;;
7211;SDS011;3647;48.792;9.802;2023-03-26T16:06:46;2.77;;;1.33;;
7211;SDS011;3647;48.792;9.802;2023-03-26T16:09:23;1.57;;;1.30;;
7211;SDS011;3647;48.792;9.802;2023-03-26T16:11:59;1.73;;;1.60;;
7211;SDS011;3647;48.792;9.802;2023-03-26T16:15:11;2.50;;;1.33;;
7211;SDS011;3647;48.792;9.802;2023-03-26T16:21:00;3.63;;;2.13;;
7211;SDS011;3647;48.792;9.802;2023-03-26T16:30:24;2.53;;;1.77;;
7211;SDS011;3647;48.792;9.802;2023-03-26T16:32:54;1.80;;;1.70;;
7211;SDS011;3647;48.792;9.802;2023-03-26T16:35:39;2.30;;;1.80;;
7211;SDS011;3647;48.792;9.802;2023-03-26T16:38:18;2.63;;;2.10;;
7211;SDS011;3647;48.792;9.802;2023-03-26T16:40:58;3.30;;;1.60;;
7211;SDS011;3647;48.792;9.802;2023-03-26T16:46:32;2.57;;;1.90;;
7211;SDS011;3647;48.792;9.802;2023-03-26T16:49:23;3.17;;;2.13;;
7211;SDS011;3647;48.792;9.802;2023-03-26T16:52:01;1.97;;;1.73;;
7211;SDS011;3647;48.792;9.802;2023-03-26T16:54:40;1.70;;;1.60;;
7211;SDS011;3647;48.792;9.802;2023-03-26T16:57:17;2.10;;;1.90;;
7211;SDS011;3647;48.792;9.802;2023-03-26T17:00:14;4.30;;;1.70;;
7211;SDS011;3647;48.792;9.802;2023-03-26T17:02:55;1.60;;;1.50;;
7211;SDS011;3647;48.792;9.802;2023-03-26T17:05:32;1.60;;;1.50;;
7211;SDS011;3647;48.792;9.802;2023-03-26T17:08:05;1.37;;;1.30;;
7211;SDS011;3647;48.792;9.802;2023-03-26T17:10:40;1.20;;;1.20;;
7211;SDS011;3647;48.792;9.802;2023-03-26T17:13:19;1.80;;;1.47;;
7211;SDS011;3647;48.792;9.802;2023-03-26T17:15:52;1.57;;;1.47;;
7211;SDS011;3647;48.792;9.802;2023-03-26T17:18:29;1.50;;;1.40;;
7211;SDS011;3647;48.792;9.802;2023-03-26T17:21:03;1.60;;;1.50;;
7211;SDS011;3647;48.792;9.802;2023-03-26T17:23:46;1.20;;;1.20;;
7211;SDS011;3647;48.792;9.802;2023-03-26T17:26:32;1.73;;;1.63;;
7211;SDS011;3647;48.792;9.802;2023-03-26T17:29:16;1.70;;;1.60;;
7211;SDS011;3647;48.792;9.802;2023-03-26T17:31:57;2.37;;;1.83;;
7211;SDS011;3647;48.792;9.802;2023-03-26T17:34:33;2.40;;;2.20;;
7211;SDS011;3647;48.792;9.802;2023-03-26T17:37:23;2.10;;;2.00;;
7211;SDS011;3647;48.792;9.802;2023-03-26T17:43:31;2.07;;;1.60;;
7211;SDS011;3647;48.792;9.802;2023-03-26T17:46:01;3.23;;;1.80;;
7211;SDS011;3647;48.792;9.802;2023-03-26T17:48:31;4.20;;;2.40;;
7211;SDS011;3647;48.792;9.802;2023-03-26T17:51:05;2.17;;;2.03;;
7211;SDS011;3647;48.792;9.802;2023-03-26T17:53:43;2.47;;;2.27;;
7211;SDS011;3647;48.792;9.802;2023-03-26T17:56:12;2.03;;;1.67;;
7211;SDS011;3647;48.792;9.802;2023-03-26T17:58:43;2.07;;;1.97;;
7211;SDS011;3647;48.792;9.802;2023-03-26T18:01:16;3.27;;;1.90;;
7211;SDS011;3647;48.792;9.802;2023-03-26T18:03:48;2.70;;;2.50;;
7211;SDS011;3647;48.792;9.802;2023-03-26T18:06:19;3.00;;;2.33;;
7211;SDS011;3647;48.792;9.802;2023-03-26T18:09:08;2.37;;;2.17;;
7211;SDS011;3647;48.792;9.802;2023-03-26T18:11:58;1.87;;;1.77;;
7211;SDS011;3647;48.792;9.802;2023-03-26T18:15:07;1.73;;;1.63;;
7211;SDS011;3647;48.792;9.802;2023-03-26T18:17:44;1.93;;;1.83;;
7211;SDS011;3647;48.792;9.802;2023-03-26T18:20:18;2.80;;;2.00;;
7211;SDS011;3647;48.792;9.802;2023-03-26T18:22:48;2.00;;;1.80;;
7211;SDS011;3647;48.792;9.802;2023-03-26T18:25:21;2.20;;;1.80;;
7211;SDS011;3647;48.792;9.802;2023-03-26T18:27:50;2.73;;;1.70;;
7211;SDS011;3647;48.792;9.802;2023-03-26T18:30:18;2.17;;;1.97;;
7211;SDS011;3647;48.792;9.802;2023-03-26T18:32:49;2.10;;;2.00;;
7211;SDS011;3647;48.792;9.802;2023-03-26T18:35:22;2.13;;;2.03;;
7211;SDS011;3647;48.792;9.802;2023-03-26T18:37:51;2.27;;;2.07;;
7211;SDS011;3647;48.792;9.802;2023-03-26T18:40:23;1.97;;;1.87;;
7211;SDS011;3647;48.792;9.802;2023-03-26T18:42:57;2.23;;;2.03;;
7211;SDS011;3647;48.792;9.802;2023-03-26T18:45:25;3.73;;;2.57;;
7211;SDS011;3647;48.792;9.802;2023-03-26T18:47:55;3.10;;;2.67;;
7211;SDS011;3647;48.792;9.802;2023-03-26T18:50:24;1.83;;;1.73;;
7211;SDS011;3647;48.792;9.802;2023-03-26T18:52:55;2.77;;;2.57;;
7211;SDS011;3647;48.792;9.802;2023-03-26T18:55:25;1.90;;;1.80;;
7211;SDS011;3647;48.792;9.802;2023-03-26T18:57:53;2.00;;;1.83;;
7211;SDS011;3647;48.792;9.802;2023-03-26T19:00:21;2.03;;;1.90;;
7211;SDS011;3647;48.792;9.802;2023-03-26T19:02:50;2.90;;;1.90;;
7211;SDS011;3647;48.792;9.802;2023-03-26T19:05:22;3.07;;;1.90;;
7211;SDS011;3647;48.792;9.802;2023-03-26T19:07:52;1.73;;;1.63;;
7211;SDS011;3647;48.792;9.802;2023-03-26T19:10:22;3.03;;;2.20;;
7211;SDS011;3647;48.792;9.802;2023-03-26T19:12:55;1.90;;;1.80;;
7211;SDS011;3647;48.792;9.802;2023-03-26T19:15:23;2.27;;;1.87;;
7211;SDS011;3647;48.792;9.802;2023-03-26T19:17:52;5.50;;;2.20;;
7211;SDS011;3647;48.792;9.802;2023-03-26T19:20:24;3.60;;;2.40;;
7211;SDS011;3647;48.792;9.802;2023-03-26T19:22:52;2.13;;;1.93;;
7211;SDS011;3647;48.792;9.802;2023-03-26T19:25:24;3.27;;;2.30;;
7211;SDS011;3647;48.792;9.802;2023-03-26T19:27:55;2.70;;;1.93;;
7211;SDS011;3647;48.792;9.802;2023-03-26T19:30:23;2.87;;;2.27;;
7211;SDS011;3647;48.792;9.802;2023-03-26T19:32:54;3.43;;;2.80;;
7211;SDS011;3647;48.792;9.802;2023-03-26T19:35:26;4.03;;;3.33;;
7211;SDS011;3647;48.792;9.802;2023-03-26T19:38:01;7.67;;;4.33;;
7211;SDS011;3647;48.792;9.802;2023-03-26T19:40:39;5.73;;;3.90;;
7211;SDS011;3647;48.792;9.802;2023-03-26T19:43:10;8.70;;;4.57;;
7211;SDS011;3647;48.792;9.802;2023-03-26T19:45:37;4.77;;;2.93;;
7211;SDS011;3647;48.792;9.802;2023-03-26T19:48:05;3.33;;;2.37;;
7211;SDS011;3647;48.792;9.802;2023-03-26T19:50:33;2.90;;;1.90;;
7211;SDS011;3647;48.792;9.802;2023-03-26T19:53:10;3.30;;;2.53;;
7211;SDS011;3647;48.792;9.802;2023-03-26T19:55:49;5.50;;;3.83;;
7211;SDS011;3647;48.792;9.802;2023-03-26T19:58:18;3.37;;;2.53;;
7211;SDS011;3647;48.792;9.802;2023-03-26T20:00:45;2.40;;;2.20;;
7211;SDS011;3647;48.792;9.802;2023-03-26T20:03:12;4.67;;;3.53;;
7211;SDS011;3647;48.792;9.802;2023-03-26T20:05:40;4.93;;;4.00;;
7211;SDS011;3647;48.792;9.802;2023-03-26T20:08:08;6.77;;;4.10;;
7211;SDS011;3647;48.792;9.802;2023-03-26T20:10:38;3.27;;;2.97;;
7211;SDS011;3647;48.792;9.802;2023-03-26T20:13:09;3.23;;;2.80;;
7211;SDS011;3647;48.792;9.802;2023-03-26T20:15:39;3.17;;;2.90;;
7211;SDS011;3647;48.792;9.802;2023-03-26T20:18:08;4.63;;;3.17;;
7211;SDS011;3647;48.792;9.802;2023-03-26T20:20:36;1.97;;;1.87;;
7211;SDS011;3647;48.792;9.802;2023-03-26T20:23:05;2.50;;;1.90;;
7211;SDS011;3647;48.792;9.802;2023-03-26T20:25:39;1.83;;;1.73;;
7211;SDS011;3647;48.792;9.802;2023-03-26T20:28:15;2.67;;;2.10;;
7211;SDS011;3647;48.792;9.802;2023-03-26T20:30:43;2.07;;;1.87;;
7211;SDS011;3647;48.792;9.802;2023-03-26T20:33:11;5.40;;;2.43;;
7211;SDS011;3647;48.792;9.802;2023-03-26T20:35:42;2.07;;;1.97;;
7211;SDS011;3647;48.792;9.802;2023-03-26T20:38:09;3.13;;;1.70;;
7211;SDS011;3647;48.792;9.802;2023-03-26T20:40:36;2.03;;;1.80;;
7211;SDS011;3647;48.792;9.802;2023-03-26T20:43:04;2.07;;;1.97;;
7211;SDS011;3647;48.792;9.802;2023-03-26T20:45:37;1.80;;;1.70;;
7211;SDS011;3647;48.792;9.802;2023-03-26T20:48:03;1.90;;;1.80;;
7211;SDS011;3647;48.792;9.802;2023-03-26T20:50:31;2.60;;;2.00;;
7211;SDS011;3647;48.792;9.802;2023-03-26T20:52:57;1.80;;;1.70;;
7211;SDS011;3647;48.792;9.802;2023-03-26T20:55:26;2.00;;;1.90;;
7211;SDS011;3647;48.792;9.802;2023-03-26T20:57:53;1.93;;;1.83;;
7211;SDS011;3647;48.792;9.802;2023-03-26T21:00:20;1.90;;;1.80;;
7211;SDS011;3647;48.792;9.802;2023-03-26T21:02:49;1.73;;;1.63;;
7211;SDS011;3647;48.792;9.802;2023-03-26T21:05:18;2.07;;;1.70;;
7211;SDS011;3647;48.792;9.802;2023-03-26T21:07:48;1.87;;;1.73;;
7211;SDS011;3647;48.792;9.802;2023-03-26T21:10:16;1.80;;;1.70;;
7211;SDS011;3647;48.792;9.802;2023-03-26T21:12:46;1.87;;;1.77;;
7211;SDS011;3647;48.792;9.802;2023-03-26T21:15:18;1.83;;;1.73;;
7211;SDS011;3647;48.792;9.802;2023-03-26T21:17:46;1.90;;;1.80;;
7211;SDS011;3647;48.792;9.802;2023-03-26T21:20:15;2.53;;;2.17;;
7211;SDS011;3647;48.792;9.802;2023-03-26T21:22:44;4.70;;;2.57;;
7211;SDS011;3647;48.792;9.802;2023-03-26T21:25:20;5.43;;;2.73;;
7211;SDS011;3647;48.792;9.802;2023-03-26T21:27:59;4.13;;;3.03;;
7211;SDS011;3647;48.792;9.802;2023-03-26T21:30:40;3.67;;;2.60;;
7211;SDS011;3647;48.792;9.802;2023-03-26T21:33:07;1.80;;;1.70;;
7211;SDS011;3647;48.792;9.802;2023-03-26T21:35:36;1.80;;;1.70;;
7211;SDS011;3647;48.792;9.802;2023-03-26T21:38:03;1.80;;;1.70;;
7211;SDS011;3647;48.792;9.802;2023-03-26T21:40:31;1.60;;;1.50;;
7211;SDS011;3647;48.792;9.802;2023-03-26T21:42:58;2.20;;;2.00;;
7211;SDS011;3647;48.792;9.802;2023-03-26T21:45:26;1.70;;;1.60;;
7211;SDS011;3647;48.792;9.802;2023-03-26T21:47:53;1.60;;;1.50;;
7211;SDS011;3647;48.792;9.802;2023-03-26T21:50:21;2.10;;;2.00;;
7211;SDS011;3647;48.792;9.802;2023-03-26T21:52:50;1.90;;;1.80;;
